Sharon Hollow, Michigan
Current Conditions -  °F | °C
As of 9:53 PM on Tuesday 25 Nov 2014 (Local Time) from KARB Reporting Station
Overcast Overcast  
Wind Chill: 24°   Ceiling: 2200
Heat Index: 29°   Visibility: 10mi
Dew Point: 20°   Wind: 5mph
Humidity: 69%   Direction: 300°WNW
Pressure: 30.19"   Gusts: NA
Location:  42.1633°N, 84.0265°W
Report Text: KARB 260253Z AUTO 30004KT 10SM OVC022 M02/M07 A3019 RMK AO2 SLP235 T10171067 51018
Loading
Personal Weather Stations






























Interactive Weather Map New forecast layout! Learn more

10-Day Weather Forecast

Advertisements
Track Severe Weather on mobile